sensor_id;sensor_type;location;lat;lon;timestamp;noise_LAeq;noise_LA_min;noise_LA_max;noise_LA01;noise_LA95
67294;Laerm;58160;51.434;5.978;2023-02-02T00:00:01;34.05;32.21;37.70;;
67294;Laerm;58160;51.434;5.978;2023-02-02T00:00:11;38.93;32.87;54.24;;
67294;Laerm;58160;51.434;5.978;2023-02-02T00:00:22;34.57;32.24;45.61;;
67294;Laerm;58160;51.434;5.978;2023-02-02T00:00:32;36.40;32.31;51.04;;
67294;Laerm;58160;51.434;5.978;2023-02-02T00:00:42;35.06;31.82;43.93;;
67294;Laerm;58160;51.434;5.978;2023-02-02T00:00:53;35.07;32.03;42.72;;
67294;Laerm;58160;51.434;5.978;2023-02-02T00:01:06;35.67;32.31;45.62;;
67294;Laerm;58160;51.434;5.978;2023-02-02T00:01:17;33.43;31.48;37.49;;
67294;Laerm;58160;51.434;5.978;2023-02-02T00:01:28;39.58;32.42;54.87;;
67294;Laerm;58160;51.434;5.978;2023-02-02T00:01:39;37.94;32.48;48.80;;
67294;Laerm;58160;51.434;5.978;2023-02-02T00:01:50;34.46;31.94;40.85;;
67294;Laerm;58160;51.434;5.978;2023-02-02T00:02:01;35.78;32.13;44.64;;
67294;Laerm;58160;51.434;5.978;2023-02-02T00:02:11;38.08;33.91;48.86;;
67294;Laerm;58160;51.434;5.978;2023-02-02T00:02:22;36.44;33.47;47.01;;
67294;Laerm;58160;51.434;5.978;2023-02-02T00:02:32;41.08;33.70;50.81;;
67294;Laerm;58160;51.434;5.978;2023-02-02T00:02:42;48.82;35.51;58.18;;
67294;Laerm;58160;51.434;5.978;2023-02-02T00:02:52;49.75;32.72;65.77;;
67294;Laerm;58160;51.434;5.978;2023-02-02T00:03:03;37.31;32.30;49.15;;
67294;Laerm;58160;51.434;5.978;2023-02-02T00:03:13;45.67;32.89;60.36;;
67294;Laerm;58160;51.434;5.978;2023-02-02T00:03:24;34.64;32.09;42.52;;
67294;Laerm;58160;51.434;5.978;2023-02-02T00:03:34;43.94;32.83;55.97;;
67294;Laerm;58160;51.434;5.978;2023-02-02T00:03:44;41.47;31.87;55.62;;
67294;Laerm;58160;51.434;5.978;2023-02-02T00:03:55;35.49;32.39;51.44;;
67294;Laerm;58160;51.434;5.978;2023-02-02T00:04:06;33.20;31.43;38.23;;
67294;Laerm;58160;51.434;5.978;2023-02-02T00:04:18;40.78;31.96;56.28;;
67294;Laerm;58160;51.434;5.978;2023-02-02T00:04:32;39.58;33.38;51.80;;
67294;Laerm;58160;51.434;5.978;2023-02-02T00:04:43;41.15;31.91;54.69;;
67294;Laerm;58160;51.434;5.978;2023-02-02T00:04:53;36.20;31.94;47.08;;
67294;Laerm;58160;51.434;5.978;2023-02-02T00:05:03;33.37;31.25;40.20;;
67294;Laerm;58160;51.434;5.978;2023-02-02T00:05:14;33.76;30.72;44.83;;
67294;Laerm;58160;51.434;5.978;2023-02-02T00:05:24;33.93;31.16;42.01;;
67294;Laerm;58160;51.434;5.978;2023-02-02T00:05:34;36.62;31.48;45.87;;
67294;Laerm;58160;51.434;5.978;2023-02-02T00:05:48;37.56;34.14;43.84;;
67294;Laerm;58160;51.434;5.978;2023-02-02T00:05:59;45.86;34.73;59.54;;
67294;Laerm;58160;51.434;5.978;2023-02-02T00:06:09;45.75;33.64;61.69;;
67294;Laerm;58160;51.434;5.978;2023-02-02T00:06:20;37.16;32.24;50.27;;
67294;Laerm;58160;51.434;5.978;2023-02-02T00:06:31;34.81;32.59;44.28;;
67294;Laerm;58160;51.434;5.978;2023-02-02T00:06:42;37.26;32.16;45.17;;
67294;Laerm;58160;51.434;5.978;2023-02-02T00:06:52;40.57;32.66;52.19;;
67294;Laerm;58160;51.434;5.978;2023-02-02T00:07:02;40.08;32.23;55.79;;
67294;Laerm;58160;51.434;5.978;2023-02-02T00:07:14;36.31;31.61;45.85;;
67294;Laerm;58160;51.434;5.978;2023-02-02T00:07:24;34.51;32.19;41.85;;
67294;Laerm;58160;51.434;5.978;2023-02-02T00:07:35;46.17;32.88;60.23;;
67294;Laerm;58160;51.434;5.978;2023-02-02T00:07:45;46.88;33.43;60.23;;
67294;Laerm;58160;51.434;5.978;2023-02-02T00:07:55;36.18;32.59;49.24;;
67294;Laerm;58160;51.434;5.978;2023-02-02T00:08:06;35.92;31.92;47.80;;
67294;Laerm;58160;51.434;5.978;2023-02-02T00:08:16;37.75;32.58;47.37;;
67294;Laerm;58160;51.434;5.978;2023-02-02T00:08:27;36.54;31.73;44.71;;
67294;Laerm;58160;51.434;5.978;2023-02-02T00:08:37;33.73;31.90;38.86;;
67294;Laerm;58160;51.434;5.978;2023-02-02T00:08:48;32.82;31.64;34.71;;
67294;Laerm;58160;51.434;5.978;2023-02-02T00:09:00;39.48;31.84;51.19;;
67294;Laerm;58160;51.434;5.978;2023-02-02T00:09:11;35.60;33.22;40.31;;
67294;Laerm;58160;51.434;5.978;2023-02-02T00:09:22;36.51;32.70;45.93;;
67294;Laerm;58160;51.434;5.978;2023-02-02T00:09:32;34.30;32.09;43.56;;
67294;Laerm;58160;51.434;5.978;2023-02-02T00:09:43;35.53;31.86;46.67;;
67294;Laerm;58160;51.434;5.978;2023-02-02T00:09:53;33.33;30.97;38.72;;
67294;Laerm;58160;51.434;5.978;2023-02-02T00:10:03;35.46;31.54;48.56;;
67294;Laerm;58160;51.434;5.978;2023-02-02T00:10:14;36.77;32.06;45.76;;
67294;Laerm;58160;51.434;5.978;2023-02-02T00:10:24;37.83;32.25;50.34;;
67294;Laerm;58160;51.434;5.978;2023-02-02T00:10:34;43.76;32.80;54.69;;
67294;Laerm;58160;51.434;5.978;2023-02-02T00:10:45;37.35;33.97;46.88;;
67294;Laerm;58160;51.434;5.978;2023-02-02T00:10:55;35.32;31.90;43.98;;
67294;Laerm;58160;51.434;5.978;2023-02-02T00:11:06;36.65;31.37;47.85;;
67294;Laerm;58160;51.434;5.978;2023-02-02T00:11:17;35.45;31.51;46.12;;
67294;Laerm;58160;51.434;5.978;2023-02-02T00:11:27;37.26;31.18;52.62;;
67294;Laerm;58160;51.434;5.978;2023-02-02T00:11:38;33.86;31.56;39.22;;
67294;Laerm;58160;51.434;5.978;2023-02-02T00:11:48;35.70;31.57;53.50;;
67294;Laerm;58160;51.434;5.978;2023-02-02T00:12:00;35.27;32.09;43.72;;
67294;Laerm;58160;51.434;5.978;2023-02-02T00:12:10;39.76;32.76;52.22;;
67294;Laerm;58160;51.434;5.978;2023-02-02T00:12:21;40.00;32.48;53.54;;
67294;Laerm;58160;51.434;5.978;2023-02-02T00:12:31;43.50;33.42;54.64;;
67294;Laerm;58160;51.434;5.978;2023-02-02T00:12:41;42.91;33.15;56.67;;
67294;Laerm;58160;51.434;5.978;2023-02-02T00:12:52;63.64;35.56;81.00;;
67294;Laerm;58160;51.434;5.978;2023-02-02T00:13:03;51.43;36.24;67.50;;
67294;Laerm;58160;51.434;5.978;2023-02-02T00:13:13;39.35;33.53;50.15;;
67294;Laerm;58160;51.434;5.978;2023-02-02T00:13:23;39.94;33.37;51.43;;
67294;Laerm;58160;51.434;5.978;2023-02-02T00:13:34;34.33;31.49;39.86;;
67294;Laerm;58160;51.434;5.978;2023-02-02T00:13:44;35.36;31.44;44.04;;
67294;Laerm;58160;51.434;5.978;2023-02-02T00:13:55;32.82;31.40;36.15;;
67294;Laerm;58160;51.434;5.978;2023-02-02T00:14:05;32.45;31.08;34.03;;
67294;Laerm;58160;51.434;5.978;2023-02-02T00:14:17;34.50;31.42;50.85;;
67294;Laerm;58160;51.434;5.978;2023-02-02T00:14:27;34.01;32.31;37.32;;
67294;Laerm;58160;51.434;5.978;2023-02-02T00:14:38;35.96;32.17;47.96;;
67294;Laerm;58160;51.434;5.978;2023-02-02T00:14:48;42.99;33.03;59.49;;
67294;Laerm;58160;51.434;5.978;2023-02-02T00:14:58;35.63;32.23;43.85;;
67294;Laerm;58160;51.434;5.978;2023-02-02T00:15:09;44.87;32.49;55.71;;
67294;Laerm;58160;51.434;5.978;2023-02-02T00:15:19;40.07;33.63;53.05;;
67294;Laerm;58160;51.434;5.978;2023-02-02T00:15:29;40.19;32.48;51.74;;
67294;Laerm;58160;51.434;5.978;2023-02-02T00:15:40;38.88;32.36;47.01;;
67294;Laerm;58160;51.434;5.978;2023-02-02T00:15:51;41.87;32.65;54.62;;
67294;Laerm;58160;51.434;5.978;2023-02-02T00:16:20;46.31;34.06;60.60;;
67294;Laerm;58160;51.434;5.978;2023-02-02T00:16:45;35.92;31.27;49.75;;
67294;Laerm;58160;51.434;5.978;2023-02-02T00:16:56;32.02;30.26;37.54;;
67294;Laerm;58160;51.434;5.978;2023-02-02T00:17:07;32.19;30.55;37.36;;
67294;Laerm;58160;51.434;5.978;2023-02-02T00:17:18;34.27;30.99;42.93;;
67294;Laerm;58160;51.434;5.978;2023-02-02T00:17:29;35.02;30.64;46.32;;
67294;Laerm;58160;51.434;5.978;2023-02-02T00:17:39;32.07;30.60;39.48;;
67294;Laerm;58160;51.434;5.978;2023-02-02T00:17:49;31.87;30.57;35.96;;
67294;Laerm;58160;51.434;5.978;2023-02-02T00:17:59;32.63;30.64;38.89;;
67294;Laerm;58160;51.434;5.978;2023-02-02T00:18:10;33.87;31.76;39.85;;
67294;Laerm;58160;51.434;5.978;2023-02-02T00:18:20;34.42;31.60;43.48;;
67294;Laerm;58160;51.434;5.978;2023-02-02T00:18:30;35.70;31.39;50.95;;
67294;Laerm;58160;51.434;5.978;2023-02-02T00:18:41;35.54;31.18;44.72;;
67294;Laerm;58160;51.434;5.978;2023-02-02T00:18:51;35.08;32.12;46.46;;
67294;Laerm;58160;51.434;5.978;2023-02-02T00:19:06;35.57;31.07;44.00;;
67294;Laerm;58160;51.434;5.978;2023-02-02T00:19:18;40.35;32.93;54.69;;
67294;Laerm;58160;51.434;5.978;2023-02-02T00:19:30;39.05;33.12;52.57;;
67294;Laerm;58160;51.434;5.978;2023-02-02T00:19:41;54.02;36.87;68.96;;
67294;Laerm;58160;51.434;5.978;2023-02-02T00:19:51;45.20;32.86;58.37;;
67294;Laerm;58160;51.434;5.978;2023-02-02T00:20:01;43.04;32.14;57.95;;
67294;Laerm;58160;51.434;5.978;2023-02-02T00:20:12;34.78;31.28;43.67;;
67294;Laerm;58160;51.434;5.978;2023-02-02T00:20:22;33.30;30.88;40.30;;
67294;Laerm;58160;51.434;5.978;2023-02-02T00:20:33;39.99;31.65;53.52;;
67294;Laerm;58160;51.434;5.978;2023-02-02T00:20:46;51.31;32.86;65.58;;
67294;Laerm;58160;51.434;5.978;2023-02-02T00:20:58;42.44;32.40;53.25;;
67294;Laerm;58160;51.434;5.978;2023-02-02T00:21:09;36.07;31.23;48.91;;
67294;Laerm;58160;51.434;5.978;2023-02-02T00:21:19;33.58;31.59;40.74;;
67294;Laerm;58160;51.434;5.978;2023-02-02T00:21:29;34.72;31.04;43.68;;
67294;Laerm;58160;51.434;5.978;2023-02-02T00:21:40;40.85;32.39;51.23;;
67294;Laerm;58160;51.434;5.978;2023-02-02T00:21:51;41.70;32.04;59.57;;
67294;Laerm;58160;51.434;5.978;2023-02-02T00:22:01;32.74;31.03;34.89;;
67294;Laerm;58160;51.434;5.978;2023-02-02T00:22:12;32.96;30.80;39.04;;
67294;Laerm;58160;51.434;5.978;2023-02-02T00:22:22;34.56;30.97;44.39;;
67294;Laerm;58160;51.434;5.978;2023-02-02T00:22:32;35.00;31.39;44.86;;
67294;Laerm;58160;51.434;5.978;2023-02-02T00:22:44;33.68;31.23;41.29;;
67294;Laerm;58160;51.434;5.978;2023-02-02T00:22:54;33.09;30.92;41.30;;
67294;Laerm;58160;51.434;5.978;2023-02-02T00:23:05;35.67;30.87;46.02;;
67294;Laerm;58160;51.434;5.978;2023-02-02T00:23:15;36.49;31.63;47.46;;
67294;Laerm;58160;51.434;5.978;2023-02-02T00:23:26;33.16;30.89;38.78;;
67294;Laerm;58160;51.434;5.978;2023-02-02T00:23:36;32.40;31.03;34.11;;
67294;Laerm;58160;51.434;5.978;2023-02-02T00:23:47;32.83;30.95;34.78;;
67294;Laerm;58160;51.434;5.978;2023-02-02T00:23:57;33.08;31.28;38.28;;
67294;Laerm;58160;51.434;5.978;2023-02-02T00:24:08;32.49;31.34;35.40;;
67294;Laerm;58160;51.434;5.978;2023-02-02T00:24:19;32.33;30.38;37.59;;
67294;Laerm;58160;51.434;5.978;2023-02-02T00:24:30;32.20;30.49;37.89;;
67294;Laerm;58160;51.434;5.978;2023-02-02T00:24:40;31.82;30.52;36.19;;
67294;Laerm;58160;51.434;5.978;2023-02-02T00:24:50;33.58;30.16;47.09;;
67294;Laerm;58160;51.434;5.978;2023-02-02T00:25:00;31.52;30.37;34.89;;
67294;Laerm;58160;51.434;5.978;2023-02-02T00:25:11;35.81;30.52;49.63;;
67294;Laerm;58160;51.434;5.978;2023-02-02T00:25:21;33.79;30.69;42.31;;
67294;Laerm;58160;51.434;5.978;2023-02-02T00:25:32;31.68;30.27;36.11;;
67294;Laerm;58160;51.434;5.978;2023-02-02T00:25:42;31.19;29.80;32.80;;
67294;Laerm;58160;51.434;5.978;2023-02-02T00:25:52;32.11;30.81;38.74;;
67294;Laerm;58160;51.434;5.978;2023-02-02T00:26:03;32.03;30.66;36.78;;
67294;Laerm;58160;51.434;5.978;2023-02-02T00:26:13;39.59;31.70;56.22;;
67294;Laerm;58160;51.434;5.978;2023-02-02T00:26:23;35.93;31.83;46.56;;
67294;Laerm;58160;51.434;5.978;2023-02-02T00:26:34;32.71;30.91;37.80;;
67294;Laerm;58160;51.434;5.978;2023-02-02T00:26:46;35.33;30.98;49.87;;
67294;Laerm;58160;51.434;5.978;2023-02-02T00:26:57;40.55;32.35;53.14;;
67294;Laerm;58160;51.434;5.978;2023-02-02T00:27:08;41.75;33.30;57.14;;
67294;Laerm;58160;51.434;5.978;2023-02-02T00:27:19;49.06;35.89;59.55;;
67294;Laerm;58160;51.434;5.978;2023-02-02T00:27:29;48.37;35.02;59.23;;
67294;Laerm;58160;51.434;5.978;2023-02-02T00:27:39;38.47;32.54;49.27;;
67294;Laerm;58160;51.434;5.978;2023-02-02T00:27:50;35.61;32.06;40.43;;
67294;Laerm;58160;51.434;5.978;2023-02-02T00:28:00;35.72;31.84;42.03;;
67294;Laerm;58160;51.434;5.978;2023-02-02T00:28:10;35.59;31.67;41.73;;
67294;Laerm;58160;51.434;5.978;2023-02-02T00:28:21;39.93;33.01;53.26;;
67294;Laerm;58160;51.434;5.978;2023-02-02T00:28:31;36.16;32.38;41.45;;
67294;Laerm;58160;51.434;5.978;2023-02-02T00:28:41;34.39;31.39;38.87;;
67294;Laerm;58160;51.434;5.978;2023-02-02T00:28:52;33.05;31.10;37.32;;
67294;Laerm;58160;51.434;5.978;2023-02-02T00:29:03;36.44;32.61;41.54;;
67294;Laerm;58160;51.434;5.978;2023-02-02T00:29:15;49.51;37.74;55.03;;
67294;Laerm;58160;51.434;5.978;2023-02-02T00:29:27;39.04;34.17;46.04;;
67294;Laerm;58160;51.434;5.978;2023-02-02T00:29:38;35.74;31.83;44.48;;
67294;Laerm;58160;51.434;5.978;2023-02-02T00:29:48;32.79;30.41;36.30;;
67294;Laerm;58160;51.434;5.978;2023-02-02T00:30:02;32.49;30.82;35.42;;
67294;Laerm;58160;51.434;5.978;2023-02-02T00:30:13;32.92;31.06;35.76;;
67294;Laerm;58160;51.434;5.978;2023-02-02T00:30:23;32.55;30.51;41.27;;
67294;Laerm;58160;51.434;5.978;2023-02-02T00:30:33;33.81;30.22;45.28;;
67294;Laerm;58160;51.434;5.978;2023-02-02T00:30:44;31.33;30.30;32.49;;
67294;Laerm;58160;51.434;5.978;2023-02-02T00:30:54;31.44;30.13;34.10;;
67294;Laerm;58160;51.434;5.978;2023-02-02T00:31:04;32.08;30.19;41.85;;
67294;Laerm;58160;51.434;5.978;2023-02-02T00:31:15;37.00;30.56;48.91;;
67294;Laerm;58160;51.434;5.978;2023-02-02T00:31:25;33.11;30.68;42.87;;
67294;Laerm;58160;51.434;5.978;2023-02-02T00:31:35;32.30;30.60;36.76;;
67294;Laerm;58160;51.434;5.978;2023-02-02T00:31:46;31.90;30.52;35.69;;
67294;Laerm;58160;51.434;5.978;2023-02-02T00:31:56;32.14;30.34;43.74;;
67294;Laerm;58160;51.434;5.978;2023-02-02T00:32:07;31.73;30.22;41.43;;
67294;Laerm;58160;51.434;5.978;2023-02-02T00:32:17;31.64;30.09;36.31;;
67294;Laerm;58160;51.434;5.978;2023-02-02T00:32:28;33.59;30.96;40.29;;
67294;Laerm;58160;51.434;5.978;2023-02-02T00:32:38;32.08;30.69;38.12;;
67294;Laerm;58160;51.434;5.978;2023-02-02T00:32:49;31.67;30.44;38.32;;
67294;Laerm;58160;51.434;5.978;2023-02-02T00:33:01;32.19;29.93;40.61;;
67294;Laerm;58160;51.434;5.978;2023-02-02T00:33:11;31.69;30.33;35.67;;
67294;Laerm;58160;51.434;5.978;2023-02-02T00:33:21;31.38;30.31;32.83;;
67294;Laerm;58160;51.434;5.978;2023-02-02T00:33:32;31.70;30.22;34.23;;
67294;Laerm;58160;51.434;5.978;2023-02-02T00:33:51;32.26;29.99;39.45;;
67294;Laerm;58160;51.434;5.978;2023-02-02T00:34:01;31.51;30.30;37.45;;
67294;Laerm;58160;51.434;5.978;2023-02-02T00:34:12;32.88;30.21;41.93;;
67294;Laerm;58160;51.434;5.978;2023-02-02T00:34:23;32.26;30.10;39.92;;
67294;Laerm;58160;51.434;5.978;2023-02-02T00:34:33;47.36;30.83;60.89;;
67294;Laerm;58160;51.434;5.978;2023-02-02T00:34:43;39.69;30.96;57.53;;
67294;Laerm;58160;51.434;5.978;2023-02-02T00:34:54;32.34;30.35;41.66;;
67294;Laerm;58160;51.434;5.978;2023-02-02T00:35:04;32.23;30.67;40.08;;
67294;Laerm;58160;51.434;5.978;2023-02-02T00:35:14;37.39;30.93;51.56;;
67294;Laerm;58160;51.434;5.978;2023-02-02T00:35:25;38.78;31.06;47.75;;
67294;Laerm;58160;51.434;5.978;2023-02-02T00:35:35;36.96;31.72;45.97;;
67294;Laerm;58160;51.434;5.978;2023-02-02T00:35:50;39.81;30.77;53.52;;
67294;Laerm;58160;51.434;5.978;2023-02-02T00:36:01;33.41;30.58;39.46;;
67294;Laerm;58160;51.434;5.978;2023-02-02T00:36:11;32.26;30.25;37.82;;
67294;Laerm;58160;51.434;5.978;2023-02-02T00:36:21;32.77;30.80;40.36;;
67294;Laerm;58160;51.434;5.978;2023-02-02T00:36:32;32.52;30.71;37.72;;
67294;Laerm;58160;51.434;5.978;2023-02-02T00:36:42;32.53;30.74;36.10;;
67294;Laerm;58160;51.434;5.978;2023-02-02T00:36:53;31.99;30.74;35.76;;
67294;Laerm;58160;51.434;5.978;2023-02-02T00:37:03;32.02;30.61;35.16;;
67294;Laerm;58160;51.434;5.978;2023-02-02T00:37:14;33.62;30.52;42.03;;
67294;Laerm;58160;51.434;5.978;2023-02-02T00:37:24;34.53;30.56;44.58;;
67294;Laerm;58160;51.434;5.978;2023-02-02T00:37:34;35.02;30.77;41.24;;
67294;Laerm;58160;51.434;5.978;2023-02-02T00:37:44;39.14;32.44;50.63;;
67294;Laerm;58160;51.434;5.978;2023-02-02T00:37:55;39.13;32.99;49.81;;
67294;Laerm;58160;51.434;5.978;2023-02-02T00:38:05;42.41;35.11;55.27;;
67294;Laerm;58160;51.434;5.978;2023-02-02T00:38:15;37.33;32.87;48.84;;
67294;Laerm;58160;51.434;5.978;2023-02-02T00:38:26;35.43;32.33;43.50;;
67294;Laerm;58160;51.434;5.978;2023-02-02T00:38:36;39.29;32.98;49.60;;
67294;Laerm;58160;51.434;5.978;2023-02-02T00:38:47;39.07;32.31;50.17;;
67294;Laerm;58160;51.434;5.978;2023-02-02T00:38:58;36.49;33.22;44.08;;
67294;Laerm;58160;51.434;5.978;2023-02-02T00:39:13;38.63;34.70;49.02;;
67294;Laerm;58160;51.434;5.978;2023-02-02T00:39:24;37.34;32.63;48.80;;
67294;Laerm;58160;51.434;5.978;2023-02-02T00:39:37;37.29;33.05;47.56;;
67294;Laerm;58160;51.434;5.978;2023-02-02T00:39:47;45.23;32.24;59.78;;
67294;Laerm;58160;51.434;5.978;2023-02-02T00:39:58;35.48;30.96;46.06;;
67294;Laerm;58160;51.434;5.978;2023-02-02T00:40:08;32.91;30.89;39.02;;
67294;Laerm;58160;51.434;5.978;2023-02-02T00:40:19;37.68;31.45;51.09;;
67294;Laerm;58160;51.434;5.978;2023-02-02T00:40:29;37.75;32.33;48.85;;
67294;Laerm;58160;51.434;5.978;2023-02-02T00:40:39;35.52;32.38;43.57;;
67294;Laerm;58160;51.434;5.978;2023-02-02T00:40:50;34.49;30.91;45.88;;
67294;Laerm;58160;51.434;5.978;2023-02-02T00:41:00;32.47;30.69;37.17;;
67294;Laerm;58160;51.434;5.978;2023-02-02T00:41:10;33.60;31.23;38.96;;
67294;Laerm;58160;51.434;5.978;2023-02-02T00:41:21;35.84;32.22;43.52;;
67294;Laerm;58160;51.434;5.978;2023-02-02T00:41:31;40.15;33.12;50.57;;
67294;Laerm;58160;51.434;5.978;2023-02-02T00:41:41;36.68;31.70;47.52;;
67294;Laerm;58160;51.434;5.978;2023-02-02T00:41:52;40.00;31.45;54.87;;
67294;Laerm;58160;51.434;5.978;2023-02-02T00:42:02;35.70;30.91;47.10;;
67294;Laerm;58160;51.434;5.978;2023-02-02T00:42:12;33.02;30.38;44.45;;
67294;Laerm;58160;51.434;5.978;2023-02-02T00:42:23;31.51;30.42;33.54;;
67294;Laerm;58160;51.434;5.978;2023-02-02T00:42:33;33.14;30.56;50.07;;
67294;Laerm;58160;51.434;5.978;2023-02-02T00:42:43;37.85;31.32;51.09;;
67294;Laerm;58160;51.434;5.978;2023-02-02T00:42:58;38.10;30.97;49.77;;
67294;Laerm;58160;51.434;5.978;2023-02-02T00:43:08;42.00;32.09;57.67;;
67294;Laerm;58160;51.434;5.978;2023-02-02T00:43:19;44.11;32.79;54.65;;
67294;Laerm;58160;51.434;5.978;2023-02-02T00:43:30;43.33;31.96;55.89;;
67294;Laerm;58160;51.434;5.978;2023-02-02T00:43:40;44.01;32.76;57.30;;
67294;Laerm;58160;51.434;5.978;2023-02-02T00:43:50;48.15;34.00;60.39;;
67294;Laerm;58160;51.434;5.978;2023-02-02T00:44:21;43.05;31.88;56.05;;
67294;Laerm;58160;51.434;5.978;2023-02-02T00:44:50;36.03;31.25;50.57;;
67294;Laerm;58160;51.434;5.978;2023-02-02T00:45:19;34.81;30.18;49.39;;
67294;Laerm;58160;51.434;5.978;2023-02-02T00:45:29;31.52;30.25;33.97;;
67294;Laerm;58160;51.434;5.978;2023-02-02T00:45:39;32.70;30.51;35.52;;
67294;Laerm;58160;51.434;5.978;2023-02-02T00:45:50;36.10;31.23;49.82;;
67294;Laerm;58160;51.434;5.978;2023-02-02T00:46:00;44.54;31.37;58.13;;
67294;Laerm;58160;51.434;5.978;2023-02-02T00:46:12;45.19;31.64;62.66;;
67294;Laerm;58160;51.434;5.978;2023-02-02T00:46:23;40.60;32.06;57.03;;
67294;Laerm;58160;51.434;5.978;2023-02-02T00:46:33;40.26;31.40;50.50;;
67294;Laerm;58160;51.434;5.978;2023-02-02T00:46:44;43.85;31.36;55.27;;
67294;Laerm;58160;51.434;5.978;2023-02-02T00:46:54;41.25;30.79;56.79;;
67294;Laerm;58160;51.434;5.978;2023-02-02T00:47:04;31.87;30.23;33.98;;
67294;Laerm;58160;51.434;5.978;2023-02-02T00:47:15;31.95;30.53;37.40;;
67294;Laerm;58160;51.434;5.978;2023-02-02T00:47:26;31.79;30.19;41.26;;
67294;Laerm;58160;51.434;5.978;2023-02-02T00:47:37;36.85;30.88;48.17;;
67294;Laerm;58160;51.434;5.978;2023-02-02T00:47:47;39.54;31.28;52.48;;
67294;Laerm;58160;51.434;5.978;2023-02-02T00:47:58;33.58;30.97;43.01;;
67294;Laerm;58160;51.434;5.978;2023-02-02T00:48:09;35.39;31.58;48.59;;
67294;Laerm;58160;51.434;5.978;2023-02-02T00:48:19;34.71;32.36;41.86;;
67294;Laerm;58160;51.434;5.978;2023-02-02T00:48:30;36.00;31.35;51.57;;
67294;Laerm;58160;51.434;5.978;2023-02-02T00:48:41;33.44;31.28;40.12;;
67294;Laerm;58160;51.434;5.978;2023-02-02T00:48:51;38.38;32.12;49.32;;
67294;Laerm;58160;51.434;5.978;2023-02-02T00:49:01;37.65;31.58;47.02;;
67294;Laerm;58160;51.434;5.978;2023-02-02T00:49:12;35.70;31.12;45.37;;
67294;Laerm;58160;51.434;5.978;2023-02-02T00:49:22;35.47;30.91;46.52;;
67294;Laerm;58160;51.434;5.978;2023-02-02T00:49:32;35.37;30.55;51.55;;
67294;Laerm;58160;51.434;5.978;2023-02-02T00:49:43;36.39;30.99;48.29;;
67294;Laerm;58160;51.434;5.978;2023-02-02T00:49:53;32.98;30.77;42.87;;
67294;Laerm;58160;51.434;5.978;2023-02-02T00:50:03;38.81;31.45;51.78;;
67294;Laerm;58160;51.434;5.978;2023-02-02T00:50:15;40.42;31.45;51.00;;
67294;Laerm;58160;51.434;5.978;2023-02-02T00:50:25;46.46;31.72;59.82;;
67294;Laerm;58160;51.434;5.978;2023-02-02T00:50:36;48.24;32.06;62.82;;
67294;Laerm;58160;51.434;5.978;2023-02-02T00:50:46;50.11;33.65;59.75;;
67294;Laerm;58160;51.434;5.978;2023-02-02T00:50:56;46.36;31.38;61.08;;
67294;Laerm;58160;51.434;5.978;2023-02-02T00:51:07;37.84;31.45;50.90;;
67294;Laerm;58160;51.434;5.978;2023-02-02T00:51:17;42.90;34.22;55.67;;
67294;Laerm;58160;51.434;5.978;2023-02-02T00:51:27;43.25;37.35;54.05;;
67294;Laerm;58160;51.434;5.978;2023-02-02T00:51:38;43.10;38.04;49.05;;
67294;Laerm;58160;51.434;5.978;2023-02-02T00:51:48;51.42;43.41;59.52;;
67294;Laerm;58160;51.434;5.978;2023-02-02T00:51:58;40.40;31.76;51.04;;
67294;Laerm;58160;51.434;5.978;2023-02-02T00:52:09;35.00;30.72;45.96;;
67294;Laerm;58160;51.434;5.978;2023-02-02T00:52:20;32.75;30.43;39.55;;
67294;Laerm;58160;51.434;5.978;2023-02-02T00:52:30;32.26;29.95;39.96;;
67294;Laerm;58160;51.434;5.978;2023-02-02T00:52:41;34.31;30.27;42.53;;
67294;Laerm;58160;51.434;5.978;2023-02-02T00:52:51;31.60;30.38;36.65;;
67294;Laerm;58160;51.434;5.978;2023-02-02T00:53:02;31.86;30.56;35.15;;
67294;Laerm;58160;51.434;5.978;2023-02-02T00:53:12;42.41;31.05;58.71;;
67294;Laerm;58160;51.434;5.978;2023-02-02T00:53:22;42.72;32.51;58.17;;
67294;Laerm;58160;51.434;5.978;2023-02-02T00:53:33;38.78;30.73;50.18;;
67294;Laerm;58160;51.434;5.978;2023-02-02T00:53:43;33.24;30.46;40.20;;
67294;Laerm;58160;51.434;5.978;2023-02-02T00:53:53;35.40;30.54;45.19;;
67294;Laerm;58160;51.434;5.978;2023-02-02T00:54:04;32.00;30.70;33.74;;
67294;Laerm;58160;51.434;5.978;2023-02-02T00:54:14;39.49;31.48;50.26;;
67294;Laerm;58160;51.434;5.978;2023-02-02T00:54:24;36.96;31.30;44.71;;
67294;Laerm;58160;51.434;5.978;2023-02-02T00:54:35;32.68;29.97;41.31;;
67294;Laerm;58160;51.434;5.978;2023-02-02T00:54:45;32.18;30.38;35.77;;
67294;Laerm;58160;51.434;5.978;2023-02-02T00:54:55;32.99;31.24;40.31;;
67294;Laerm;58160;51.434;5.978;2023-02-02T00:55:07;38.07;31.84;49.67;;
67294;Laerm;58160;51.434;5.978;2023-02-02T00:55:18;42.65;30.40;58.10;;
67294;Laerm;58160;51.434;5.978;2023-02-02T00:55:29;34.97;31.07;44.04;;
67294;Laerm;58160;51.434;5.978;2023-02-02T00:55:39;33.07;31.02;43.40;;
67294;Laerm;58160;51.434;5.978;2023-02-02T00:55:49;33.18;31.26;37.86;;
67294;Laerm;58160;51.434;5.978;2023-02-02T00:55:59;31.84;30.28;34.06;;
67294;Laerm;58160;51.434;5.978;2023-02-02T00:56:10;35.15;30.68;46.06;;
67294;Laerm;58160;51.434;5.978;2023-02-02T00:56:20;38.74;30.96;51.15;;
67294;Laerm;58160;51.434;5.978;2023-02-02T00:56:30;41.31;30.92;54.72;;
67294;Laerm;58160;51.434;5.978;2023-02-02T00:56:41;41.57;32.50;54.01;;
67294;Laerm;58160;51.434;5.978;2023-02-02T00:56:51;40.65;32.66;54.38;;
67294;Laerm;58160;51.434;5.978;2023-02-02T00:57:01;37.97;32.20;49.25;;
67294;Laerm;58160;51.434;5.978;2023-02-02T00:57:12;39.81;31.84;54.90;;
67294;Laerm;58160;51.434;5.978;2023-02-02T00:57:23;52.91;32.87;70.44;;
67294;Laerm;58160;51.434;5.978;2023-02-02T00:57:33;56.12;35.63;68.47;;
67294;Laerm;58160;51.434;5.978;2023-02-02T00:57:43;43.35;31.61;60.89;;
67294;Laerm;58160;51.434;5.978;2023-02-02T00:57:54;37.70;31.59;48.06;;
67294;Laerm;58160;51.434;5.978;2023-02-02T00:58:04;48.84;35.16;59.03;;
67294;Laerm;58160;51.434;5.978;2023-02-02T00:58:14;38.14;32.05;49.28;;
67294;Laerm;58160;51.434;5.978;2023-02-02T00:58:25;32.81;30.39;40.61;;
67294;Laerm;58160;51.434;5.978;2023-02-02T00:58:35;31.32;30.07;36.23;;
67294;Laerm;58160;51.434;5.978;2023-02-02T00:58:45;31.28;30.08;36.45;;
67294;Laerm;58160;51.434;5.978;2023-02-02T00:58:55;31.54;30.16;33.73;;
67294;Laerm;58160;51.434;5.978;2023-02-02T00:59:06;33.24;30.59;43.67;;
67294;Laerm;58160;51.434;5.978;2023-02-02T00:59:16;31.79;30.23;35.24;;
67294;Laerm;58160;51.434;5.978;2023-02-02T00:59:26;48.60;31.55;60.41;;
67294;Laerm;58160;51.434;5.978;2023-02-02T00:59:37;54.02;37.11;64.25;;
67294;Laerm;58160;51.434;5.978;2023-02-02T00:59:47;50.10;33.61;61.52;;
67294;Laerm;58160;51.434;5.978;2023-02-02T00:59:57;43.38;31.43;56.27;;
67294;Laerm;58160;51.434;5.978;2023-02-02T01:00:10;37.74;31.06;47.17;;
67294;Laerm;58160;51.434;5.978;2023-02-02T01:00:22;36.53;30.95;48.15;;
67294;Laerm;58160;51.434;5.978;2023-02-02T01:00:33;31.92;30.44;36.24;;
67294;Laerm;58160;51.434;5.978;2023-02-02T01:00:43;35.03;30.87;44.77;;
67294;Laerm;58160;51.434;5.978;2023-02-02T01:00:53;37.25;30.44;49.72;;
67294;Laerm;58160;51.434;5.978;2023-02-02T01:01:04;36.31;30.90;48.93;;